sensor_id;sensor_type;location;lat;lon;timestamp;temperature;humidity
11107;DHT22;5607;48.302;14.294;2022-07-23T00:00:02;25.90;99.90
11107;DHT22;5607;48.302;14.294;2022-07-23T00:02:49;25.90;99.90
11107;DHT22;5607;48.302;14.294;2022-07-23T00:05:36;25.70;99.90
11107;DHT22;5607;48.302;14.294;2022-07-23T00:08:23;25.70;99.90
11107;DHT22;5607;48.302;14.294;2022-07-23T00:11:09;25.70;99.90
11107;DHT22;5607;48.302;14.294;2022-07-23T00:13:55;25.70;99.90
11107;DHT22;5607;48.302;14.294;2022-07-23T00:16:43;25.70;99.90
11107;DHT22;5607;48.302;14.294;2022-07-23T00:19:29;25.70;99.90
11107;DHT22;5607;48.302;14.294;2022-07-23T00:22:16;25.70;99.90
11107;DHT22;5607;48.302;14.294;2022-07-23T00:25:02;25.70;1.00
11107;DHT22;5607;48.302;14.294;2022-07-23T00:27:48;25.60;99.90
11107;DHT22;5607;48.302;14.294;2022-07-23T00:30:35;25.60;99.90
11107;DHT22;5607;48.302;14.294;2022-07-23T00:33:21;25.60;99.90
11107;DHT22;5607;48.302;14.294;2022-07-23T00:36:07;25.60;1.00
11107;DHT22;5607;48.302;14.294;2022-07-23T00:38:54;25.50;1.00
11107;DHT22;5607;48.302;14.294;2022-07-23T00:41:40;25.60;1.00
11107;DHT22;5607;48.302;14.294;2022-07-23T00:44:26;25.60;1.00
11107;DHT22;5607;48.302;14.294;2022-07-23T00:47:13;25.50;1.00
11107;DHT22;5607;48.302;14.294;2022-07-23T00:50:00;25.40;1.40
11107;DHT22;5607;48.302;14.294;2022-07-23T00:52:47;25.40;1.00
11107;DHT22;5607;48.302;14.294;2022-07-23T00:55:33;25.30;99.90
11107;DHT22;5607;48.302;14.294;2022-07-23T00:58:20;25.40;1.00
11107;DHT22;5607;48.302;14.294;2022-07-23T01:01:06;25.50;1.40
11107;DHT22;5607;48.302;14.294;2022-07-23T01:03:54;25.60;99.90
11107;DHT22;5607;48.302;14.294;2022-07-23T01:06:40;25.60;1.40
11107;DHT22;5607;48.302;14.294;2022-07-23T01:09:27;25.60;99.90
11107;DHT22;5607;48.302;14.294;2022-07-23T01:12:14;25.50;1.40
11107;DHT22;5607;48.302;14.294;2022-07-23T01:18:05;25.50;1.00
11107;DHT22;5607;48.302;14.294;2022-07-23T01:20:52;25.60;99.90
11107;DHT22;5607;48.302;14.294;2022-07-23T01:23:39;25.60;1.40
11107;DHT22;5607;48.302;14.294;2022-07-23T01:26:25;25.70;99.90
11107;DHT22;5607;48.302;14.294;2022-07-23T01:29:12;25.70;99.90
11107;DHT22;5607;48.302;14.294;2022-07-23T01:31:58;25.80;99.90
11107;DHT22;5607;48.302;14.294;2022-07-23T01:34:44;25.80;99.90
11107;DHT22;5607;48.302;14.294;2022-07-23T01:37:31;25.90;99.90
11107;DHT22;5607;48.302;14.294;2022-07-23T01:40:17;25.90;99.90
11107;DHT22;5607;48.302;14.294;2022-07-23T01:43:03;25.80;99.90
11107;DHT22;5607;48.302;14.294;2022-07-23T01:45:49;25.70;99.90
11107;DHT22;5607;48.302;14.294;2022-07-23T01:48:36;25.70;99.90
11107;DHT22;5607;48.302;14.294;2022-07-23T01:51:22;25.80;99.90
11107;DHT22;5607;48.302;14.294;2022-07-23T01:54:08;25.70;99.90
11107;DHT22;5607;48.302;14.294;2022-07-23T01:56:54;25.80;99.90
11107;DHT22;5607;48.302;14.294;2022-07-23T01:59:41;25.80;99.90
11107;DHT22;5607;48.302;14.294;2022-07-23T02:02:27;25.70;99.90
11107;DHT22;5607;48.302;14.294;2022-07-23T02:05:13;25.70;99.90
11107;DHT22;5607;48.302;14.294;2022-07-23T02:08:00;25.70;99.90
11107;DHT22;5607;48.302;14.294;2022-07-23T02:10:46;25.60;99.90
11107;DHT22;5607;48.302;14.294;2022-07-23T02:13:34;25.60;99.90
11107;DHT22;5607;48.302;14.294;2022-07-23T02:25:54;25.50;99.90
11107;DHT22;5607;48.302;14.294;2022-07-23T02:28:40;25.50;99.90
11107;DHT22;5607;48.302;14.294;2022-07-23T02:31:26;25.50;99.90
11107;DHT22;5607;48.302;14.294;2022-07-23T02:34:12;25.50;99.90
11107;DHT22;5607;48.302;14.294;2022-07-23T02:36:59;25.60;99.90
11107;DHT22;5607;48.302;14.294;2022-07-23T02:42:51;25.40;99.90
11107;DHT22;5607;48.302;14.294;2022-07-23T02:45:37;25.30;1.40
11107;DHT22;5607;48.302;14.294;2022-07-23T02:48:24;25.30;99.90
11107;DHT22;5607;48.302;14.294;2022-07-23T02:51:10;25.30;99.90
11107;DHT22;5607;48.302;14.294;2022-07-23T02:53:57;25.10;99.90
11107;DHT22;5607;48.302;14.294;2022-07-23T02:59:52;25.00;1.00
11107;DHT22;5607;48.302;14.294;2022-07-23T03:02:38;25.00;1.00
11107;DHT22;5607;48.302;14.294;2022-07-23T03:05:24;25.00;1.00
11107;DHT22;5607;48.302;14.294;2022-07-23T03:08:11;25.00;1.00
11107;DHT22;5607;48.302;14.294;2022-07-23T03:10:57;24.90;1.00
11107;DHT22;5607;48.302;14.294;2022-07-23T03:13:43;24.90;1.00
11107;DHT22;5607;48.302;14.294;2022-07-23T03:16:30;24.90;1.00
11107;DHT22;5607;48.302;14.294;2022-07-23T03:19:16;24.90;1.00
11107;DHT22;5607;48.302;14.294;2022-07-23T03:22:02;25.00;1.00
11107;DHT22;5607;48.302;14.294;2022-07-23T03:24:48;25.10;1.00
11107;DHT22;5607;48.302;14.294;2022-07-23T03:27:40;25.20;1.00
11107;DHT22;5607;48.302;14.294;2022-07-23T03:30:27;25.20;1.00
11107;DHT22;5607;48.302;14.294;2022-07-23T03:33:13;25.20;1.00
11107;DHT22;5607;48.302;14.294;2022-07-23T03:36:00;25.10;1.00
11107;DHT22;5607;48.302;14.294;2022-07-23T03:38:46;25.10;1.00
11107;DHT22;5607;48.302;14.294;2022-07-23T03:41:32;24.90;1.00
11107;DHT22;5607;48.302;14.294;2022-07-23T03:44:19;24.90;1.00
11107;DHT22;5607;48.302;14.294;2022-07-23T03:47:05;24.70;1.00
11107;DHT22;5607;48.302;14.294;2022-07-23T03:49:52;24.70;1.00
11107;DHT22;5607;48.302;14.294;2022-07-23T03:52:38;24.80;1.00
11107;DHT22;5607;48.302;14.294;2022-07-23T03:55:24;24.80;1.00
11107;DHT22;5607;48.302;14.294;2022-07-23T03:58:10;24.40;1.00
11107;DHT22;5607;48.302;14.294;2022-07-23T04:04:20;24.00;1.00
11107;DHT22;5607;48.302;14.294;2022-07-23T04:07:07;24.00;1.00
11107;DHT22;5607;48.302;14.294;2022-07-23T04:13:00;24.10;1.00
11107;DHT22;5607;48.302;14.294;2022-07-23T04:15:46;24.30;1.00
11107;DHT22;5607;48.302;14.294;2022-07-23T04:18:33;24.50;1.00
11107;DHT22;5607;48.302;14.294;2022-07-23T04:21:19;24.60;1.00
11107;DHT22;5607;48.302;14.294;2022-07-23T04:24:05;24.60;1.00
11107;DHT22;5607;48.302;14.294;2022-07-23T04:26:51;24.60;1.00
11107;DHT22;5607;48.302;14.294;2022-07-23T04:29:39;24.70;1.00
11107;DHT22;5607;48.302;14.294;2022-07-23T04:32:26;24.70;1.00
11107;DHT22;5607;48.302;14.294;2022-07-23T04:35:12;24.70;1.00
11107;DHT22;5607;48.302;14.294;2022-07-23T04:37:58;24.70;1.00
11107;DHT22;5607;48.302;14.294;2022-07-23T04:40:46;24.70;1.00
11107;DHT22;5607;48.302;14.294;2022-07-23T04:43:32;24.70;1.00
11107;DHT22;5607;48.302;14.294;2022-07-23T04:46:19;24.80;1.00
11107;DHT22;5607;48.302;14.294;2022-07-23T04:49:05;24.90;1.00
11107;DHT22;5607;48.302;14.294;2022-07-23T04:51:51;24.80;1.00
11107;DHT22;5607;48.302;14.294;2022-07-23T04:54:37;24.80;1.00
11107;DHT22;5607;48.302;14.294;2022-07-23T04:57:24;24.80;1.00
11107;DHT22;5607;48.302;14.294;2022-07-23T05:00:10;24.90;1.00
11107;DHT22;5607;48.302;14.294;2022-07-23T05:02:57;24.90;1.00
11107;DHT22;5607;48.302;14.294;2022-07-23T05:05:43;25.00;99.90
11107;DHT22;5607;48.302;14.294;2022-07-23T05:08:29;25.30;1.00
11107;DHT22;5607;48.302;14.294;2022-07-23T05:11:16;25.40;1.00
11107;DHT22;5607;48.302;14.294;2022-07-23T05:14:02;25.50;99.90
11107;DHT22;5607;48.302;14.294;2022-07-23T05:16:48;25.60;99.90
11107;DHT22;5607;48.302;14.294;2022-07-23T05:22:58;25.70;1.00
11107;DHT22;5607;48.302;14.294;2022-07-23T05:29:08;25.50;99.90
11107;DHT22;5607;48.302;14.294;2022-07-23T05:31:55;25.70;99.90
11107;DHT22;5607;48.302;14.294;2022-07-23T05:34:42;25.70;1.00
11107;DHT22;5607;48.302;14.294;2022-07-23T05:37:28;25.80;99.90
11107;DHT22;5607;48.302;14.294;2022-07-23T05:40:14;25.90;99.90
11107;DHT22;5607;48.302;14.294;2022-07-23T05:43:02;26.00;99.90
11107;DHT22;5607;48.302;14.294;2022-07-23T05:45:48;26.20;99.90
11107;DHT22;5607;48.302;14.294;2022-07-23T05:48:34;26.20;99.90
11107;DHT22;5607;48.302;14.294;2022-07-23T05:51:24;26.20;99.90
11107;DHT22;5607;48.302;14.294;2022-07-23T05:54:10;26.20;99.90
11107;DHT22;5607;48.302;14.294;2022-07-23T05:56:56;26.00;99.90
11107;DHT22;5607;48.302;14.294;2022-07-23T05:59:42;26.00;99.90
11107;DHT22;5607;48.302;14.294;2022-07-23T06:02:29;26.00;99.90
11107;DHT22;5607;48.302;14.294;2022-07-23T06:05:15;25.90;99.90
11107;DHT22;5607;48.302;14.294;2022-07-23T06:08:01;26.10;99.90
11107;DHT22;5607;48.302;14.294;2022-07-23T06:10:48;26.30;99.90
11107;DHT22;5607;48.302;14.294;2022-07-23T06:13:35;26.40;99.90
11107;DHT22;5607;48.302;14.294;2022-07-23T06:16:21;26.40;99.90
11107;DHT22;5607;48.302;14.294;2022-07-23T06:19:09;26.40;99.90
11107;DHT22;5607;48.302;14.294;2022-07-23T06:21:56;26.30;99.90
11107;DHT22;5607;48.302;14.294;2022-07-23T06:24:42;26.50;99.90
11107;DHT22;5607;48.302;14.294;2022-07-23T06:27:28;26.60;99.90
11107;DHT22;5607;48.302;14.294;2022-07-23T06:30:15;26.60;99.90
11107;DHT22;5607;48.302;14.294;2022-07-23T06:33:03;26.90;99.90
11107;DHT22;5607;48.302;14.294;2022-07-23T06:35:49;27.00;99.90
11107;DHT22;5607;48.302;14.294;2022-07-23T06:38:35;27.10;99.90
11107;DHT22;5607;48.302;14.294;2022-07-23T06:41:22;27.30;99.90
11107;DHT22;5607;48.302;14.294;2022-07-23T06:44:09;27.70;99.90
11107;DHT22;5607;48.302;14.294;2022-07-23T06:46:56;28.20;99.90
11107;DHT22;5607;48.302;14.294;2022-07-23T06:49:42;28.40;99.90
11107;DHT22;5607;48.302;14.294;2022-07-23T06:52:29;28.40;99.90
11107;DHT22;5607;48.302;14.294;2022-07-23T06:55:15;28.40;99.90
11107;DHT22;5607;48.302;14.294;2022-07-23T06:58:01;28.30;99.90
11107;DHT22;5607;48.302;14.294;2022-07-23T07:00:47;28.20;99.90
11107;DHT22;5607;48.302;14.294;2022-07-23T07:03:34;27.90;99.90
11107;DHT22;5607;48.302;14.294;2022-07-23T07:06:20;27.90;99.90
11107;DHT22;5607;48.302;14.294;2022-07-23T07:09:06;28.10;99.90
11107;DHT22;5607;48.302;14.294;2022-07-23T07:11:52;28.10;99.90
11107;DHT22;5607;48.302;14.294;2022-07-23T07:14:39;28.20;99.90
11107;DHT22;5607;48.302;14.294;2022-07-23T07:17:25;28.10;99.90
11107;DHT22;5607;48.302;14.294;2022-07-23T07:20:11;27.90;99.90
11107;DHT22;5607;48.302;14.294;2022-07-23T07:22:57;27.70;99.90
11107;DHT22;5607;48.302;14.294;2022-07-23T07:25:44;27.60;99.90
11107;DHT22;5607;48.302;14.294;2022-07-23T07:28:30;27.60;99.90
11107;DHT22;5607;48.302;14.294;2022-07-23T07:31:16;27.80;99.90
11107;DHT22;5607;48.302;14.294;2022-07-23T07:34:04;28.10;99.90
11107;DHT22;5607;48.302;14.294;2022-07-23T07:36:50;28.40;99.90
11107;DHT22;5607;48.302;14.294;2022-07-23T07:39:36;28.60;99.90
11107;DHT22;5607;48.302;14.294;2022-07-23T07:42:22;28.90;99.90
11107;DHT22;5607;48.302;14.294;2022-07-23T07:45:10;28.70;99.90
11107;DHT22;5607;48.302;14.294;2022-07-23T07:47:57;28.90;99.90
11107;DHT22;5607;48.302;14.294;2022-07-23T07:50:43;28.70;99.90
11107;DHT22;5607;48.302;14.294;2022-07-23T07:53:31;28.80;99.90
11107;DHT22;5607;48.302;14.294;2022-07-23T07:56:17;28.80;99.90
11107;DHT22;5607;48.302;14.294;2022-07-23T07:59:03;28.60;99.90
11107;DHT22;5607;48.302;14.294;2022-07-23T08:01:50;28.60;99.90
11107;DHT22;5607;48.302;14.294;2022-07-23T08:04:37;28.50;99.90
11107;DHT22;5607;48.302;14.294;2022-07-23T08:07:23;28.40;99.90
11107;DHT22;5607;48.302;14.294;2022-07-23T08:10:09;28.40;99.90
11107;DHT22;5607;48.302;14.294;2022-07-23T08:12:56;28.30;99.90
11107;DHT22;5607;48.302;14.294;2022-07-23T08:15:43;28.50;99.90
11107;DHT22;5607;48.302;14.294;2022-07-23T08:18:29;28.70;99.90
11107;DHT22;5607;48.302;14.294;2022-07-23T08:21:15;28.70;99.90
11107;DHT22;5607;48.302;14.294;2022-07-23T08:24:02;28.90;99.90
11107;DHT22;5607;48.302;14.294;2022-07-23T08:26:48;29.10;99.90
11107;DHT22;5607;48.302;14.294;2022-07-23T08:29:34;29.30;99.90
11107;DHT22;5607;48.302;14.294;2022-07-23T08:32:21;29.10;99.90
11107;DHT22;5607;48.302;14.294;2022-07-23T08:35:07;28.90;99.90
11107;DHT22;5607;48.302;14.294;2022-07-23T08:37:53;28.90;99.90
11107;DHT22;5607;48.302;14.294;2022-07-23T08:40:41;29.00;99.90
11107;DHT22;5607;48.302;14.294;2022-07-23T08:43:28;29.10;99.90
11107;DHT22;5607;48.302;14.294;2022-07-23T08:46:15;29.40;99.90
11107;DHT22;5607;48.302;14.294;2022-07-23T08:49:02;29.20;99.90
11107;DHT22;5607;48.302;14.294;2022-07-23T08:51:49;29.10;99.90
11107;DHT22;5607;48.302;14.294;2022-07-23T08:54:37;29.00;99.90
11107;DHT22;5607;48.302;14.294;2022-07-23T08:57:24;29.30;99.90
11107;DHT22;5607;48.302;14.294;2022-07-23T09:00:11;29.60;99.90
11107;DHT22;5607;48.302;14.294;2022-07-23T09:02:57;29.80;99.90
11107;DHT22;5607;48.302;14.294;2022-07-23T09:05:44;30.00;99.90
11107;DHT22;5607;48.302;14.294;2022-07-23T09:08:38;30.10;99.90
11107;DHT22;5607;48.302;14.294;2022-07-23T09:11:25;29.90;99.90
11107;DHT22;5607;48.302;14.294;2022-07-23T09:14:12;29.80;99.90
11107;DHT22;5607;48.302;14.294;2022-07-23T09:17:07;30.10;99.90
11107;DHT22;5607;48.302;14.294;2022-07-23T09:19:54;30.30;99.90
11107;DHT22;5607;48.302;14.294;2022-07-23T09:22:52;30.40;99.90
11107;DHT22;5607;48.302;14.294;2022-07-23T09:25:38;30.50;99.90
11107;DHT22;5607;48.302;14.294;2022-07-23T09:28:25;30.60;99.90
11107;DHT22;5607;48.302;14.294;2022-07-23T09:31:11;30.90;99.90
11107;DHT22;5607;48.302;14.294;2022-07-23T09:34:07;31.10;99.90
11107;DHT22;5607;48.302;14.294;2022-07-23T09:36:55;30.90;99.90
11107;DHT22;5607;48.302;14.294;2022-07-23T09:39:42;30.80;99.90
11107;DHT22;5607;48.302;14.294;2022-07-23T09:42:29;30.70;99.90
11107;DHT22;5607;48.302;14.294;2022-07-23T09:45:15;30.30;99.90
11107;DHT22;5607;48.302;14.294;2022-07-23T09:51:01;30.10;99.90
11107;DHT22;5607;48.302;14.294;2022-07-23T09:53:50;30.40;99.90
11107;DHT22;5607;48.302;14.294;2022-07-23T10:00:01;30.60;99.90
11107;DHT22;5607;48.302;14.294;2022-07-23T10:02:48;30.40;99.90
11107;DHT22;5607;48.302;14.294;2022-07-23T10:05:35;30.40;99.90
11107;DHT22;5607;48.302;14.294;2022-07-23T10:11:46;30.60;99.90
11107;DHT22;5607;48.302;14.294;2022-07-23T10:14:34;31.00;99.90
11107;DHT22;5607;48.302;14.294;2022-07-23T10:17:22;31.00;99.90
11107;DHT22;5607;48.302;14.294;2022-07-23T10:20:08;30.90;99.90
11107;DHT22;5607;48.302;14.294;2022-07-23T10:22:59;30.80;99.90
11107;DHT22;5607;48.302;14.294;2022-07-23T10:26:05;30.80;99.90
11107;DHT22;5607;48.302;14.294;2022-07-23T10:31:58;30.80;99.90
11107;DHT22;5607;48.302;14.294;2022-07-23T10:35:03;30.80;99.90
11107;DHT22;5607;48.302;14.294;2022-07-23T10:37:54;30.90;99.90
11107;DHT22;5607;48.302;14.294;2022-07-23T10:40:56;31.30;99.90
11107;DHT22;5607;48.302;14.294;2022-07-23T10:43:43;31.60;99.90
11107;DHT22;5607;48.302;14.294;2022-07-23T10:46:29;31.90;99.90
11107;DHT22;5607;48.302;14.294;2022-07-23T10:49:28;31.80;99.90
11107;DHT22;5607;48.302;14.294;2022-07-23T10:57:48;31.50;99.90
11107;DHT22;5607;48.302;14.294;2022-07-23T11:00:35;31.00;99.90
11107;DHT22;5607;48.302;14.294;2022-07-23T11:03:29;31.00;99.90
11107;DHT22;5607;48.302;14.294;2022-07-23T11:06:17;30.40;99.90
11107;DHT22;5607;48.302;14.294;2022-07-23T11:20:37;30.70;99.90
11107;DHT22;5607;48.302;14.294;2022-07-23T11:23:23;30.60;99.90
11107;DHT22;5607;48.302;14.294;2022-07-23T11:29:38;30.80;99.90
11107;DHT22;5607;48.302;14.294;2022-07-23T11:32:27;30.30;99.90
11107;DHT22;5607;48.302;14.294;2022-07-23T11:35:21;29.80;99.90
11107;DHT22;5607;48.302;14.294;2022-07-23T11:38:15;30.10;99.90
11107;DHT22;5607;48.302;14.294;2022-07-23T11:41:02;30.50;99.90
11107;DHT22;5607;48.302;14.294;2022-07-23T11:43:48;30.90;99.90
11107;DHT22;5607;48.302;14.294;2022-07-23T11:46:34;31.30;99.90
11107;DHT22;5607;48.302;14.294;2022-07-23T11:49:20;30.80;99.90
11107;DHT22;5607;48.302;14.294;2022-07-23T11:55:30;30.70;99.90
11107;DHT22;5607;48.302;14.294;2022-07-23T11:58:17;30.70;99.90
11107;DHT22;5607;48.302;14.294;2022-07-23T12:01:04;30.40;99.90
11107;DHT22;5607;48.302;14.294;2022-07-23T12:03:51;30.10;99.90
11107;DHT22;5607;48.302;14.294;2022-07-23T12:06:38;30.20;99.90
11107;DHT22;5607;48.302;14.294;2022-07-23T12:09:24;30.80;99.90
11107;DHT22;5607;48.302;14.294;2022-07-23T12:12:11;31.10;99.90
11107;DHT22;5607;48.302;14.294;2022-07-23T12:14:57;31.10;99.90
11107;DHT22;5607;48.302;14.294;2022-07-23T12:17:45;31.40;99.90
11107;DHT22;5607;48.302;14.294;2022-07-23T12:20:33;31.40;99.90
11107;DHT22;5607;48.302;14.294;2022-07-23T12:23:20;31.40;99.90
11107;DHT22;5607;48.302;14.294;2022-07-23T12:29:14;31.70;99.90
11107;DHT22;5607;48.302;14.294;2022-07-23T12:32:01;31.80;99.90
11107;DHT22;5607;48.302;14.294;2022-07-23T12:34:48;31.40;99.90
11107;DHT22;5607;48.302;14.294;2022-07-23T12:37:35;31.60;99.90
11107;DHT22;5607;48.302;14.294;2022-07-23T12:40:33;32.00;99.90
11107;DHT22;5607;48.302;14.294;2022-07-23T12:43:24;32.10;99.90
11107;DHT22;5607;48.302;14.294;2022-07-23T12:46:13;32.40;99.90
11107;DHT22;5607;48.302;14.294;2022-07-23T12:49:00;32.40;99.90
11107;DHT22;5607;48.302;14.294;2022-07-23T12:51:49;32.30;99.90
11107;DHT22;5607;48.302;14.294;2022-07-23T12:54:36;32.20;99.90
11107;DHT22;5607;48.302;14.294;2022-07-23T13:09:34;32.70;99.90
11107;DHT22;5607;48.302;14.294;2022-07-23T13:12:21;33.20;99.90
11107;DHT22;5607;48.302;14.294;2022-07-23T13:15:07;33.70;99.90
11107;DHT22;5607;48.302;14.294;2022-07-23T13:17:54;34.00;99.90
11107;DHT22;5607;48.302;14.294;2022-07-23T13:20:40;34.40;99.90
11107;DHT22;5607;48.302;14.294;2022-07-23T13:23:26;34.50;99.90
11107;DHT22;5607;48.302;14.294;2022-07-23T13:26:13;33.90;99.90
11107;DHT22;5607;48.302;14.294;2022-07-23T13:28:59;33.70;99.90
11107;DHT22;5607;48.302;14.294;2022-07-23T13:31:46;33.60;99.90
11107;DHT22;5607;48.302;14.294;2022-07-23T13:34:33;33.50;99.90
11107;DHT22;5607;48.302;14.294;2022-07-23T13:37:19;33.50;99.90
11107;DHT22;5607;48.302;14.294;2022-07-23T13:40:06;33.80;99.90
11107;DHT22;5607;48.302;14.294;2022-07-23T13:42:53;33.80;99.90
11107;DHT22;5607;48.302;14.294;2022-07-23T13:45:40;33.70;99.90
11107;DHT22;5607;48.302;14.294;2022-07-23T13:48:28;34.00;99.90
11107;DHT22;5607;48.302;14.294;2022-07-23T13:51:15;33.40;99.90
11107;DHT22;5607;48.302;14.294;2022-07-23T13:54:02;33.30;99.90
11107;DHT22;5607;48.302;14.294;2022-07-23T13:56:50;33.00;99.90
11107;DHT22;5607;48.302;14.294;2022-07-23T13:59:39;32.50;99.90
11107;DHT22;5607;48.302;14.294;2022-07-23T14:05:35;32.40;99.90
11107;DHT22;5607;48.302;14.294;2022-07-23T14:08:21;33.50;99.90
11107;DHT22;5607;48.302;14.294;2022-07-23T14:11:08;35.10;99.90
11107;DHT22;5607;48.302;14.294;2022-07-23T14:13:54;37.40;99.90
11107;DHT22;5607;48.302;14.294;2022-07-23T14:16:40;37.00;99.90
11107;DHT22;5607;48.302;14.294;2022-07-23T14:19:26;34.60;99.90
11107;DHT22;5607;48.302;14.294;2022-07-23T14:22:13;33.10;99.90
11107;DHT22;5607;48.302;14.294;2022-07-23T14:24:59;32.10;99.90
11107;DHT22;5607;48.302;14.294;2022-07-23T14:27:46;32.00;99.90
11107;DHT22;5607;48.302;14.294;2022-07-23T14:30:32;31.80;99.90
11107;DHT22;5607;48.302;14.294;2022-07-23T14:33:19;31.30;99.90
11107;DHT22;5607;48.302;14.294;2022-07-23T14:36:07;31.00;99.90
11107;DHT22;5607;48.302;14.294;2022-07-23T14:38:54;31.20;99.90
11107;DHT22;5607;48.302;14.294;2022-07-23T14:41:40;31.30;99.90
11107;DHT22;5607;48.302;14.294;2022-07-23T14:44:26;31.20;99.90
11107;DHT22;5607;48.302;14.294;2022-07-23T14:47:13;31.30;99.90
11107;DHT22;5607;48.302;14.294;2022-07-23T14:49:59;31.00;99.90
11107;DHT22;5607;48.302;14.294;2022-07-23T14:52:45;31.10;99.90
11107;DHT22;5607;48.302;14.294;2022-07-23T14:55:33;31.30;99.90
11107;DHT22;5607;48.302;14.294;2022-07-23T14:58:19;31.70;99.90
11107;DHT22;5607;48.302;14.294;2022-07-23T15:01:07;31.70;99.90
11107;DHT22;5607;48.302;14.294;2022-07-23T15:03:53;31.60;99.90
11107;DHT22;5607;48.302;14.294;2022-07-23T15:06:39;31.40;99.90
11107;DHT22;5607;48.302;14.294;2022-07-23T15:09:25;31.60;99.90
11107;DHT22;5607;48.302;14.294;2022-07-23T15:12:13;31.10;99.90
11107;DHT22;5607;48.302;14.294;2022-07-23T15:15:00;30.70;99.90
11107;DHT22;5607;48.302;14.294;2022-07-23T15:17:47;30.90;99.90
11107;DHT22;5607;48.302;14.294;2022-07-23T15:20:33;31.50;99.90
11107;DHT22;5607;48.302;14.294;2022-07-23T15:23:20;31.70;99.90
11107;DHT22;5607;48.302;14.294;2022-07-23T15:26:07;31.40;99.90
11107;DHT22;5607;48.302;14.294;2022-07-23T15:28:53;31.40;99.90
11107;DHT22;5607;48.302;14.294;2022-07-23T15:31:40;31.30;99.90
11107;DHT22;5607;48.302;14.294;2022-07-23T15:34:27;31.30;99.90
11107;DHT22;5607;48.302;14.294;2022-07-23T15:37:15;31.00;99.90
11107;DHT22;5607;48.302;14.294;2022-07-23T15:40:02;31.00;99.90
11107;DHT22;5607;48.302;14.294;2022-07-23T15:42:51;31.10;99.90
11107;DHT22;5607;48.302;14.294;2022-07-23T15:45:38;31.10;99.90
11107;DHT22;5607;48.302;14.294;2022-07-23T15:48:25;31.30;99.90
11107;DHT22;5607;48.302;14.294;2022-07-23T15:51:11;31.30;99.90
11107;DHT22;5607;48.302;14.294;2022-07-23T15:57:02;31.40;99.90
11107;DHT22;5607;48.302;14.294;2022-07-23T15:59:49;31.30;99.90
11107;DHT22;5607;48.302;14.294;2022-07-23T16:02:35;31.20;99.90
11107;DHT22;5607;48.302;14.294;2022-07-23T16:05:21;31.10;99.90
11107;DHT22;5607;48.302;14.294;2022-07-23T16:08:18;30.50;99.90
11107;DHT22;5607;48.302;14.294;2022-07-23T16:11:05;30.00;99.90
11107;DHT22;5607;48.302;14.294;2022-07-23T16:13:52;30.00;99.90
11107;DHT22;5607;48.302;14.294;2022-07-23T16:16:39;30.10;99.90
11107;DHT22;5607;48.302;14.294;2022-07-23T16:19:26;30.10;99.90
11107;DHT22;5607;48.302;14.294;2022-07-23T16:22:12;30.10;99.90
11107;DHT22;5607;48.302;14.294;2022-07-23T16:25:03;30.00;99.90
11107;DHT22;5607;48.302;14.294;2022-07-23T16:27:50;30.00;99.90
11107;DHT22;5607;48.302;14.294;2022-07-23T16:30:36;30.10;99.90
11107;DHT22;5607;48.302;14.294;2022-07-23T16:33:22;30.00;99.90
11107;DHT22;5607;48.302;14.294;2022-07-23T16:36:09;30.00;99.90
11107;DHT22;5607;48.302;14.294;2022-07-23T16:38:57;30.00;99.90
11107;DHT22;5607;48.302;14.294;2022-07-23T16:41:44;30.10;99.90
11107;DHT22;5607;48.302;14.294;2022-07-23T16:44:37;29.90;99.90
11107;DHT22;5607;48.302;14.294;2022-07-23T16:50:28;29.70;99.90
11107;DHT22;5607;48.302;14.294;2022-07-23T16:53:14;29.80;99.90
11107;DHT22;5607;48.302;14.294;2022-07-23T16:56:02;29.90;99.90
11107;DHT22;5607;48.302;14.294;2022-07-23T17:01:57;30.10;99.90
11107;DHT22;5607;48.302;14.294;2022-07-23T17:04:44;30.10;99.90
11107;DHT22;5607;48.302;14.294;2022-07-23T17:07:30;30.10;99.90
11107;DHT22;5607;48.302;14.294;2022-07-23T17:10:16;29.70;99.90
11107;DHT22;5607;48.302;14.294;2022-07-23T17:13:02;29.50;99.90
11107;DHT22;5607;48.302;14.294;2022-07-23T17:15:49;29.40;99.90
11107;DHT22;5607;48.302;14.294;2022-07-23T17:18:35;29.30;99.90
11107;DHT22;5607;48.302;14.294;2022-07-23T17:21:21;29.20;99.90
11107;DHT22;5607;48.302;14.294;2022-07-23T17:24:09;29.20;99.90
11107;DHT22;5607;48.302;14.294;2022-07-23T17:26:55;29.00;99.90
11107;DHT22;5607;48.302;14.294;2022-07-23T17:29:42;29.00;99.90
11107;DHT22;5607;48.302;14.294;2022-07-23T17:32:28;29.10;99.90
11107;DHT22;5607;48.302;14.294;2022-07-23T17:35:14;29.00;99.90
11107;DHT22;5607;48.302;14.294;2022-07-23T17:38:05;28.90;99.90
11107;DHT22;5607;48.302;14.294;2022-07-23T17:40:51;28.70;99.90
11107;DHT22;5607;48.302;14.294;2022-07-23T17:43:37;28.50;99.90
11107;DHT22;5607;48.302;14.294;2022-07-23T17:46:25;28.40;99.90
11107;DHT22;5607;48.302;14.294;2022-07-23T17:49:11;28.10;99.90
11107;DHT22;5607;48.302;14.294;2022-07-23T17:52:01;28.00;99.90
11107;DHT22;5607;48.302;14.294;2022-07-23T17:54:47;27.80;99.90
11107;DHT22;5607;48.302;14.294;2022-07-23T17:57:34;27.90;99.90
11107;DHT22;5607;48.302;14.294;2022-07-23T18:00:21;28.00;99.90
11107;DHT22;5607;48.302;14.294;2022-07-23T18:03:08;28.10;99.90
11107;DHT22;5607;48.302;14.294;2022-07-23T18:05:54;28.00;99.90
11107;DHT22;5607;48.302;14.294;2022-07-23T18:08:41;27.90;99.90
11107;DHT22;5607;48.302;14.294;2022-07-23T18:11:27;28.20;99.90
11107;DHT22;5607;48.302;14.294;2022-07-23T18:14:15;28.30;99.90
11107;DHT22;5607;48.302;14.294;2022-07-23T18:20:08;28.20;99.90
11107;DHT22;5607;48.302;14.294;2022-07-23T18:22:55;27.80;99.90
11107;DHT22;5607;48.302;14.294;2022-07-23T18:25:41;27.60;99.90
11107;DHT22;5607;48.302;14.294;2022-07-23T18:28:28;27.60;99.90
11107;DHT22;5607;48.302;14.294;2022-07-23T18:31:14;27.70;99.90
11107;DHT22;5607;48.302;14.294;2022-07-23T18:34:00;27.80;99.90
11107;DHT22;5607;48.302;14.294;2022-07-23T18:36:46;27.60;99.90
11107;DHT22;5607;48.302;14.294;2022-07-23T18:39:33;27.50;99.90
11107;DHT22;5607;48.302;14.294;2022-07-23T18:42:21;27.40;99.90
11107;DHT22;5607;48.302;14.294;2022-07-23T18:51:20;27.40;99.90
11107;DHT22;5607;48.302;14.294;2022-07-23T18:54:07;27.40;99.90
11107;DHT22;5607;48.302;14.294;2022-07-23T18:56:55;27.30;99.90
11107;DHT22;5607;48.302;14.294;2022-07-23T18:59:42;27.20;99.90
11107;DHT22;5607;48.302;14.294;2022-07-23T19:02:29;27.00;99.90
11107;DHT22;5607;48.302;14.294;2022-07-23T19:05:16;26.90;99.90
11107;DHT22;5607;48.302;14.294;2022-07-23T19:08:03;27.00;99.90
11107;DHT22;5607;48.302;14.294;2022-07-23T19:10:51;27.00;99.90
11107;DHT22;5607;48.302;14.294;2022-07-23T19:13:38;26.90;99.90
11107;DHT22;5607;48.302;14.294;2022-07-23T19:16:24;26.90;99.90
11107;DHT22;5607;48.302;14.294;2022-07-23T19:19:10;26.80;99.90
11107;DHT22;5607;48.302;14.294;2022-07-23T19:21:57;26.80;99.90